sensor_id;sensor_type;location;lat;lon;timestamp;P1;durP1;ratioP1;P2;durP2;ratioP2
45893;SDS011;31603;51.148;16.932;2022-11-15T00:00:20;124.70;;;56.00;;
45893;SDS011;31603;51.148;16.932;2022-11-15T00:02:48;157.80;;;69.20;;
45893;SDS011;31603;51.148;16.932;2022-11-15T00:05:14;141.25;;;63.25;;
45893;SDS011;31603;51.148;16.932;2022-11-15T00:07:43;145.45;;;65.22;;
45893;SDS011;31603;51.148;16.932;2022-11-15T00:10:09;174.00;;;76.25;;
45893;SDS011;31603;51.148;16.932;2022-11-15T00:12:42;151.85;;;68.22;;
45893;SDS011;31603;51.148;16.932;2022-11-15T00:15:08;122.78;;;56.35;;
45893;SDS011;31603;51.148;16.932;2022-11-15T00:17:45;118.68;;;55.10;;
45893;SDS011;31603;51.148;16.932;2022-11-15T00:20:17;124.97;;;58.50;;
45893;SDS011;31603;51.148;16.932;2022-11-15T00:22:56;130.05;;;57.88;;
45893;SDS011;31603;51.148;16.932;2022-11-15T00:25:22;119.70;;;55.53;;
45893;SDS011;31603;51.148;16.932;2022-11-15T00:27:50;125.50;;;53.40;;
45893;SDS011;31603;51.148;16.932;2022-11-15T00:30:22;116.93;;;54.53;;
45893;SDS011;31603;51.148;16.932;2022-11-15T00:33:04;133.45;;;63.20;;
45893;SDS011;31603;51.148;16.932;2022-11-15T00:35:38;123.05;;;54.72;;
45893;SDS011;31603;51.148;16.932;2022-11-15T00:38:04;119.15;;;54.85;;
45893;SDS011;31603;51.148;16.932;2022-11-15T00:40:31;117.55;;;51.92;;
45893;SDS011;31603;51.148;16.932;2022-11-15T00:42:58;130.63;;;58.45;;
45893;SDS011;31603;51.148;16.932;2022-11-15T00:45:24;120.55;;;53.30;;
45893;SDS011;31603;51.148;16.932;2022-11-15T00:48:03;123.93;;;54.67;;
45893;SDS011;31603;51.148;16.932;2022-11-15T00:50:31;125.40;;;52.90;;
45893;SDS011;31603;51.148;16.932;2022-11-15T00:52:58;106.38;;;51.67;;
45893;SDS011;31603;51.148;16.932;2022-11-15T00:55:24;114.28;;;51.67;;
45893;SDS011;31603;51.148;16.932;2022-11-15T00:57:51;156.20;;;67.43;;
45893;SDS011;31603;51.148;16.932;2022-11-15T01:00:18;126.18;;;55.95;;
45893;SDS011;31603;51.148;16.932;2022-11-15T01:02:50;137.07;;;63.70;;
45893;SDS011;31603;51.148;16.932;2022-11-15T01:05:25;152.57;;;63.22;;
45893;SDS011;31603;51.148;16.932;2022-11-15T01:08:22;109.47;;;49.13;;
45893;SDS011;31603;51.148;16.932;2022-11-15T01:10:59;124.32;;;53.67;;
45893;SDS011;31603;51.148;16.932;2022-11-15T01:13:30;117.68;;;51.90;;
45893;SDS011;31603;51.148;16.932;2022-11-15T01:16:06;109.60;;;48.50;;
45893;SDS011;31603;51.148;16.932;2022-11-15T01:18:40;119.63;;;53.20;;
45893;SDS011;31603;51.148;16.932;2022-11-15T01:21:09;111.80;;;49.20;;
45893;SDS011;31603;51.148;16.932;2022-11-15T01:23:39;120.07;;;53.33;;
45893;SDS011;31603;51.148;16.932;2022-11-15T01:26:06;113.03;;;50.05;;
45893;SDS011;31603;51.148;16.932;2022-11-15T01:28:35;120.03;;;56.05;;
45893;SDS011;31603;51.148;16.932;2022-11-15T01:31:03;122.55;;;51.45;;
45893;SDS011;31603;51.148;16.932;2022-11-15T01:33:33;127.22;;;55.67;;
45893;SDS011;31603;51.148;16.932;2022-11-15T01:36:04;112.13;;;50.47;;
45893;SDS011;31603;51.148;16.932;2022-11-15T01:38:40;125.95;;;55.80;;
45893;SDS011;31603;51.148;16.932;2022-11-15T01:41:11;120.75;;;50.88;;
45893;SDS011;31603;51.148;16.932;2022-11-15T01:43:41;110.57;;;49.45;;
45893;SDS011;31603;51.148;16.932;2022-11-15T01:46:13;131.82;;;54.03;;
45893;SDS011;31603;51.148;16.932;2022-11-15T01:48:51;114.85;;;50.42;;
45893;SDS011;31603;51.148;16.932;2022-11-15T01:51:24;116.38;;;51.65;;
45893;SDS011;31603;51.148;16.932;2022-11-15T01:53:57;118.45;;;50.30;;
45893;SDS011;31603;51.148;16.932;2022-11-15T01:56:29;115.57;;;51.72;;
45893;SDS011;31603;51.148;16.932;2022-11-15T01:58:59;107.35;;;51.20;;
45893;SDS011;31603;51.148;16.932;2022-11-15T02:01:29;109.60;;;49.70;;
45893;SDS011;31603;51.148;16.932;2022-11-15T02:04:09;127.25;;;54.53;;
45893;SDS011;31603;51.148;16.932;2022-11-15T02:06:49;126.70;;;53.03;;
45893;SDS011;31603;51.148;16.932;2022-11-15T02:12:27;126.47;;;53.20;;
45893;SDS011;31603;51.148;16.932;2022-11-15T02:14:55;144.25;;;54.90;;
45893;SDS011;31603;51.148;16.932;2022-11-15T02:17:29;124.57;;;50.20;;
45893;SDS011;31603;51.148;16.932;2022-11-15T02:20:15;117.10;;;46.20;;
45893;SDS011;31603;51.148;16.932;2022-11-15T02:23:03;122.90;;;51.97;;
45893;SDS011;31603;51.148;16.932;2022-11-15T02:25:49;109.18;;;49.47;;
45893;SDS011;31603;51.148;16.932;2022-11-15T02:28:48;114.88;;;51.03;;
45893;SDS011;31603;51.148;16.932;2022-11-15T02:31:26;111.10;;;49.28;;
45893;SDS011;31603;51.148;16.932;2022-11-15T02:33:59;112.75;;;50.22;;
45893;SDS011;31603;51.148;16.932;2022-11-15T02:36:34;146.27;;;57.78;;
45893;SDS011;31603;51.148;16.932;2022-11-15T02:39:07;156.70;;;64.40;;
45893;SDS011;31603;51.148;16.932;2022-11-15T02:41:39;125.35;;;55.28;;
45893;SDS011;31603;51.148;16.932;2022-11-15T02:44:17;118.55;;;50.55;;
45893;SDS011;31603;51.148;16.932;2022-11-15T02:46:57;123.68;;;51.70;;
45893;SDS011;31603;51.148;16.932;2022-11-15T02:49:40;121.07;;;49.25;;
45893;SDS011;31603;51.148;16.932;2022-11-15T02:52:13;150.30;;;63.22;;
45893;SDS011;31603;51.148;16.932;2022-11-15T02:54:41;122.88;;;52.47;;
45893;SDS011;31603;51.148;16.932;2022-11-15T02:57:10;136.27;;;55.92;;
45893;SDS011;31603;51.148;16.932;2022-11-15T02:59:51;121.72;;;51.20;;
45893;SDS011;31603;51.148;16.932;2022-11-15T03:02:33;119.18;;;52.35;;
45893;SDS011;31603;51.148;16.932;2022-11-15T03:05:12;111.35;;;50.45;;
45893;SDS011;31603;51.148;16.932;2022-11-15T03:07:45;110.60;;;50.47;;
45893;SDS011;31603;51.148;16.932;2022-11-15T03:10:24;144.02;;;58.22;;
45893;SDS011;31603;51.148;16.932;2022-11-15T03:13:10;135.27;;;55.22;;
45893;SDS011;31603;51.148;16.932;2022-11-15T03:15:49;160.10;;;65.72;;
45893;SDS011;31603;51.148;16.932;2022-11-15T03:18:21;130.40;;;55.20;;
45893;SDS011;31603;51.148;16.932;2022-11-15T03:20:53;124.55;;;52.92;;
45893;SDS011;31603;51.148;16.932;2022-11-15T03:23:22;132.02;;;53.65;;
45893;SDS011;31603;51.148;16.932;2022-11-15T03:25:50;153.88;;;62.30;;
45893;SDS011;31603;51.148;16.932;2022-11-15T03:28:23;135.27;;;58.35;;
45893;SDS011;31603;51.148;16.932;2022-11-15T03:30:59;143.52;;;54.45;;
45893;SDS011;31603;51.148;16.932;2022-11-15T03:33:51;129.52;;;53.47;;
45893;SDS011;31603;51.148;16.932;2022-11-15T03:36:21;109.40;;;46.00;;
45893;SDS011;31603;51.148;16.932;2022-11-15T03:38:51;125.70;;;51.30;;
45893;SDS011;31603;51.148;16.932;2022-11-15T03:41:23;124.35;;;52.63;;
45893;SDS011;31603;51.148;16.932;2022-11-15T03:44:28;114.15;;;48.13;;
45893;SDS011;31603;51.148;16.932;2022-11-15T03:47:03;116.15;;;48.13;;
45893;SDS011;31603;51.148;16.932;2022-11-15T03:49:38;114.93;;;45.72;;
45893;SDS011;31603;51.148;16.932;2022-11-15T03:52:08;111.90;;;48.78;;
45893;SDS011;31603;51.148;16.932;2022-11-15T03:54:36;113.60;;;47.17;;
45893;SDS011;31603;51.148;16.932;2022-11-15T03:57:13;104.45;;;46.83;;
45893;SDS011;31603;51.148;16.932;2022-11-15T03:59:39;114.30;;;48.28;;
45893;SDS011;31603;51.148;16.932;2022-11-15T04:02:05;110.60;;;48.25;;
45893;SDS011;31603;51.148;16.932;2022-11-15T04:04:32;128.68;;;50.47;;
45893;SDS011;31603;51.148;16.932;2022-11-15T04:06:59;119.32;;;48.88;;
45893;SDS011;31603;51.148;16.932;2022-11-15T04:09:26;119.15;;;48.45;;
45893;SDS011;31603;51.148;16.932;2022-11-15T04:11:52;137.30;;;55.10;;
45893;SDS011;31603;51.148;16.932;2022-11-15T04:14:21;123.50;;;52.53;;
45893;SDS011;31603;51.148;16.932;2022-11-15T04:16:48;132.32;;;55.80;;
45893;SDS011;31603;51.148;16.932;2022-11-15T04:19:14;135.10;;;54.85;;
45893;SDS011;31603;51.148;16.932;2022-11-15T04:21:59;125.75;;;54.55;;
45893;SDS011;31603;51.148;16.932;2022-11-15T04:24:44;134.20;;;57.45;;
45893;SDS011;31603;51.148;16.932;2022-11-15T04:27:10;123.13;;;52.72;;
45893;SDS011;31603;51.148;16.932;2022-11-15T04:29:37;109.20;;;47.33;;
45893;SDS011;31603;51.148;16.932;2022-11-15T04:32:04;112.70;;;46.38;;
45893;SDS011;31603;51.148;16.932;2022-11-15T04:34:32;116.97;;;48.63;;
45893;SDS011;31603;51.148;16.932;2022-11-15T04:37:00;124.75;;;53.03;;
45893;SDS011;31603;51.148;16.932;2022-11-15T04:39:41;103.32;;;45.20;;
45893;SDS011;31603;51.148;16.932;2022-11-15T04:42:08;130.10;;;52.15;;
45893;SDS011;31603;51.148;16.932;2022-11-15T04:44:37;140.15;;;51.90;;
45893;SDS011;31603;51.148;16.932;2022-11-15T04:47:04;118.60;;;48.50;;
45893;SDS011;31603;51.148;16.932;2022-11-15T04:49:31;113.65;;;48.65;;
45893;SDS011;31603;51.148;16.932;2022-11-15T04:51:57;139.65;;;55.35;;
45893;SDS011;31603;51.148;16.932;2022-11-15T04:54:25;126.10;;;55.30;;
45893;SDS011;31603;51.148;16.932;2022-11-15T04:56:52;135.85;;;57.20;;
45893;SDS011;31603;51.148;16.932;2022-11-15T04:59:18;120.05;;;53.88;;
45893;SDS011;31603;51.148;16.932;2022-11-15T05:01:44;131.23;;;56.78;;
45893;SDS011;31603;51.148;16.932;2022-11-15T05:04:11;119.45;;;51.75;;
45893;SDS011;31603;51.148;16.932;2022-11-15T05:06:46;106.80;;;47.17;;
45893;SDS011;31603;51.148;16.932;2022-11-15T05:09:13;107.60;;;47.47;;
45893;SDS011;31603;51.148;16.932;2022-11-15T05:11:41;130.30;;;56.53;;
45893;SDS011;31603;51.148;16.932;2022-11-15T05:14:08;110.00;;;48.13;;
45893;SDS011;31603;51.148;16.932;2022-11-15T05:16:34;107.88;;;47.63;;
45893;SDS011;31603;51.148;16.932;2022-11-15T05:19:01;110.22;;;48.30;;
45893;SDS011;31603;51.148;16.932;2022-11-15T05:21:28;112.43;;;49.08;;
45893;SDS011;31603;51.148;16.932;2022-11-15T05:23:54;109.47;;;44.38;;
45893;SDS011;31603;51.148;16.932;2022-11-15T05:26:20;116.80;;;50.20;;
45893;SDS011;31603;51.148;16.932;2022-11-15T05:28:51;90.88;;;42.65;;
45893;SDS011;31603;51.148;16.932;2022-11-15T05:31:18;94.90;;;42.33;;
45893;SDS011;31603;51.148;16.932;2022-11-15T05:33:44;93.68;;;41.72;;
45893;SDS011;31603;51.148;16.932;2022-11-15T05:36:12;98.15;;;42.53;;
45893;SDS011;31603;51.148;16.932;2022-11-15T05:38:42;102.75;;;43.97;;
45893;SDS011;31603;51.148;16.932;2022-11-15T05:41:10;105.18;;;45.15;;
45893;SDS011;31603;51.148;16.932;2022-11-15T05:43:40;107.40;;;44.17;;
45893;SDS011;31603;51.148;16.932;2022-11-15T05:46:11;113.30;;;45.60;;
45893;SDS011;31603;51.148;16.932;2022-11-15T05:48:40;118.47;;;47.93;;
45893;SDS011;31603;51.148;16.932;2022-11-15T05:51:09;148.13;;;57.15;;
45893;SDS011;31603;51.148;16.932;2022-11-15T05:53:35;148.13;;;59.53;;
45893;SDS011;31603;51.148;16.932;2022-11-15T05:56:03;178.10;;;58.95;;
45893;SDS011;31603;51.148;16.932;2022-11-15T05:58:31;133.75;;;52.75;;
45893;SDS011;31603;51.148;16.932;2022-11-15T06:01:00;122.70;;;52.45;;
45893;SDS011;31603;51.148;16.932;2022-11-15T06:03:32;112.33;;;46.50;;
45893;SDS011;31603;51.148;16.932;2022-11-15T06:06:04;117.22;;;46.65;;
45893;SDS011;31603;51.148;16.932;2022-11-15T06:08:31;107.13;;;46.42;;
45893;SDS011;31603;51.148;16.932;2022-11-15T06:11:02;114.20;;;48.53;;
45893;SDS011;31603;51.148;16.932;2022-11-15T06:13:29;103.35;;;46.40;;
45893;SDS011;31603;51.148;16.932;2022-11-15T06:15:55;99.18;;;43.22;;
45893;SDS011;31603;51.148;16.932;2022-11-15T06:18:22;111.97;;;47.80;;
45893;SDS011;31603;51.148;16.932;2022-11-15T06:20:50;106.43;;;48.13;;
45893;SDS011;31603;51.148;16.932;2022-11-15T06:23:16;120.53;;;51.80;;
45893;SDS011;31603;51.148;16.932;2022-11-15T06:25:44;108.35;;;48.63;;
45893;SDS011;31603;51.148;16.932;2022-11-15T06:28:11;143.38;;;63.40;;
45893;SDS011;31603;51.148;16.932;2022-11-15T06:30:37;117.45;;;53.72;;
45893;SDS011;31603;51.148;16.932;2022-11-15T06:33:04;114.20;;;53.92;;
45893;SDS011;31603;51.148;16.932;2022-11-15T06:35:32;142.70;;;61.13;;
45893;SDS011;31603;51.148;16.932;2022-11-15T06:38:02;107.80;;;47.72;;
45893;SDS011;31603;51.148;16.932;2022-11-15T06:40:32;100.63;;;46.05;;
45893;SDS011;31603;51.148;16.932;2022-11-15T06:42:59;111.75;;;44.22;;
45893;SDS011;31603;51.148;16.932;2022-11-15T06:45:25;116.03;;;46.55;;
45893;SDS011;31603;51.148;16.932;2022-11-15T06:47:52;101.57;;;42.72;;
45893;SDS011;31603;51.148;16.932;2022-11-15T06:50:19;104.75;;;44.45;;
45893;SDS011;31603;51.148;16.932;2022-11-15T06:52:45;121.82;;;51.67;;
45893;SDS011;31603;51.148;16.932;2022-11-15T06:55:13;109.47;;;48.72;;
45893;SDS011;31603;51.148;16.932;2022-11-15T06:57:46;132.02;;;60.22;;
45893;SDS011;31603;51.148;16.932;2022-11-15T07:00:16;125.40;;;54.53;;
45893;SDS011;31603;51.148;16.932;2022-11-15T07:02:43;132.25;;;59.03;;
45893;SDS011;31603;51.148;16.932;2022-11-15T07:05:10;110.20;;;54.10;;
45893;SDS011;31603;51.148;16.932;2022-11-15T07:07:37;125.05;;;58.10;;
45893;SDS011;31603;51.148;16.932;2022-11-15T07:10:06;127.22;;;56.17;;
45893;SDS011;31603;51.148;16.932;2022-11-15T07:12:42;118.97;;;48.65;;
45893;SDS011;31603;51.148;16.932;2022-11-15T07:15:08;121.90;;;52.28;;
45893;SDS011;31603;51.148;16.932;2022-11-15T07:17:35;123.72;;;55.20;;
45893;SDS011;31603;51.148;16.932;2022-11-15T07:20:02;119.82;;;55.97;;
45893;SDS011;31603;51.148;16.932;2022-11-15T07:22:28;116.75;;;54.40;;
45893;SDS011;31603;51.148;16.932;2022-11-15T07:24:56;147.13;;;59.00;;
45893;SDS011;31603;51.148;16.932;2022-11-15T07:27:23;118.55;;;52.38;;
45893;SDS011;31603;51.148;16.932;2022-11-15T07:29:50;106.25;;;49.63;;
45893;SDS011;31603;51.148;16.932;2022-11-15T07:32:17;102.00;;;46.20;;
45893;SDS011;31603;51.148;16.932;2022-11-15T07:34:43;90.45;;;44.28;;
45893;SDS011;31603;51.148;16.932;2022-11-15T07:37:11;110.93;;;50.17;;
45893;SDS011;31603;51.148;16.932;2022-11-15T07:39:38;98.63;;;45.35;;
45893;SDS011;31603;51.148;16.932;2022-11-15T07:42:05;95.70;;;47.00;;
45893;SDS011;31603;51.148;16.932;2022-11-15T07:44:50;104.00;;;48.58;;
45893;SDS011;31603;51.148;16.932;2022-11-15T07:47:19;112.15;;;53.92;;
45893;SDS011;31603;51.148;16.932;2022-11-15T07:49:46;99.03;;;44.63;;
45893;SDS011;31603;51.148;16.932;2022-11-15T07:52:17;99.63;;;43.20;;
45893;SDS011;31603;51.148;16.932;2022-11-15T07:54:43;98.55;;;46.40;;
45893;SDS011;31603;51.148;16.932;2022-11-15T07:57:09;79.70;;;39.25;;
45893;SDS011;31603;51.148;16.932;2022-11-15T07:59:36;83.60;;;41.80;;
45893;SDS011;31603;51.148;16.932;2022-11-15T08:02:04;82.50;;;40.42;;
45893;SDS011;31603;51.148;16.932;2022-11-15T08:04:30;86.30;;;43.65;;
45893;SDS011;31603;51.148;16.932;2022-11-15T08:06:56;83.72;;;38.70;;
45893;SDS011;31603;51.148;16.932;2022-11-15T08:09:23;82.15;;;41.60;;
45893;SDS011;31603;51.148;16.932;2022-11-15T08:11:50;75.47;;;36.42;;
45893;SDS011;31603;51.148;16.932;2022-11-15T08:14:16;80.50;;;36.97;;
45893;SDS011;31603;51.148;16.932;2022-11-15T08:16:42;78.18;;;39.55;;
45893;SDS011;31603;51.148;16.932;2022-11-15T08:19:10;81.88;;;41.33;;
45893;SDS011;31603;51.148;16.932;2022-11-15T08:21:37;78.97;;;40.65;;
45893;SDS011;31603;51.148;16.932;2022-11-15T08:24:03;73.13;;;37.25;;
45893;SDS011;31603;51.148;16.932;2022-11-15T08:26:30;82.85;;;42.20;;
45893;SDS011;31603;51.148;16.932;2022-11-15T08:28:56;81.25;;;39.50;;
45893;SDS011;31603;51.148;16.932;2022-11-15T08:31:23;78.72;;;39.08;;
45893;SDS011;31603;51.148;16.932;2022-11-15T08:33:49;74.40;;;40.00;;
45893;SDS011;31603;51.148;16.932;2022-11-15T08:36:17;73.57;;;39.50;;
45893;SDS011;31603;51.148;16.932;2022-11-15T08:38:44;76.40;;;40.30;;
45893;SDS011;31603;51.148;16.932;2022-11-15T08:41:11;68.78;;;37.00;;
45893;SDS011;31603;51.148;16.932;2022-11-15T08:43:41;74.43;;;38.47;;
45893;SDS011;31603;51.148;16.932;2022-11-15T08:46:08;82.22;;;43.72;;
45893;SDS011;31603;51.148;16.932;2022-11-15T08:48:37;77.85;;;42.28;;
45893;SDS011;31603;51.148;16.932;2022-11-15T08:51:04;77.93;;;41.47;;
45893;SDS011;31603;51.148;16.932;2022-11-15T08:53:33;71.40;;;38.67;;
45893;SDS011;31603;51.148;16.932;2022-11-15T08:56:04;83.13;;;41.35;;
45893;SDS011;31603;51.148;16.932;2022-11-15T08:58:39;72.47;;;41.95;;
45893;SDS011;31603;51.148;16.932;2022-11-15T09:01:13;72.55;;;40.38;;
45893;SDS011;31603;51.148;16.932;2022-11-15T09:03:41;74.43;;;38.03;;
45893;SDS011;31603;51.148;16.932;2022-11-15T09:06:07;75.10;;;39.88;;
45893;SDS011;31603;51.148;16.932;2022-11-15T09:08:36;77.50;;;42.30;;
45893;SDS011;31603;51.148;16.932;2022-11-15T09:11:03;81.18;;;43.55;;
45893;SDS011;31603;51.148;16.932;2022-11-15T09:13:30;72.57;;;41.25;;
45893;SDS011;31603;51.148;16.932;2022-11-15T09:15:57;66.82;;;38.08;;
45893;SDS011;31603;51.148;16.932;2022-11-15T09:18:24;73.82;;;37.72;;
45893;SDS011;31603;51.148;16.932;2022-11-15T09:20:50;71.82;;;36.95;;
45893;SDS011;31603;51.148;16.932;2022-11-15T09:23:17;69.68;;;36.90;;
45893;SDS011;31603;51.148;16.932;2022-11-15T09:25:44;65.43;;;35.25;;
45893;SDS011;31603;51.148;16.932;2022-11-15T09:28:11;55.05;;;32.53;;
45893;SDS011;31603;51.148;16.932;2022-11-15T09:30:37;59.92;;;34.40;;
45893;SDS011;31603;51.148;16.932;2022-11-15T09:33:07;59.53;;;33.28;;
45893;SDS011;31603;51.148;16.932;2022-11-15T09:35:33;64.53;;;35.97;;
45893;SDS011;31603;51.148;16.932;2022-11-15T09:38:02;61.13;;;34.78;;
45893;SDS011;31603;51.148;16.932;2022-11-15T09:40:29;58.05;;;34.17;;
45893;SDS011;31603;51.148;16.932;2022-11-15T09:43:04;62.65;;;35.25;;
45893;SDS011;31603;51.148;16.932;2022-11-15T09:48:39;55.78;;;31.42;;
45893;SDS011;31603;51.148;16.932;2022-11-15T09:51:17;55.80;;;32.85;;
45893;SDS011;31603;51.148;16.932;2022-11-15T09:53:58;54.83;;;32.67;;
45893;SDS011;31603;51.148;16.932;2022-11-15T09:56:30;60.75;;;32.65;;
45893;SDS011;31603;51.148;16.932;2022-11-15T09:59:08;58.65;;;34.00;;
45893;SDS011;31603;51.148;16.932;2022-11-15T10:01:44;56.85;;;33.72;;
45893;SDS011;31603;51.148;16.932;2022-11-15T10:04:21;58.25;;;33.40;;
45893;SDS011;31603;51.148;16.932;2022-11-15T10:06:51;56.17;;;34.38;;
45893;SDS011;31603;51.148;16.932;2022-11-15T10:09:29;55.13;;;33.00;;
45893;SDS011;31603;51.148;16.932;2022-11-15T10:12:03;56.35;;;35.10;;
45893;SDS011;31603;51.148;16.932;2022-11-15T10:14:31;56.88;;;34.58;;
45893;SDS011;31603;51.148;16.932;2022-11-15T10:17:28;57.05;;;30.48;;
45893;SDS011;31603;51.148;16.932;2022-11-15T10:20:10;50.83;;;30.10;;
45893;SDS011;31603;51.148;16.932;2022-11-15T10:22:44;43.72;;;27.23;;
45893;SDS011;31603;51.148;16.932;2022-11-15T10:25:16;44.83;;;23.67;;
45893;SDS011;31603;51.148;16.932;2022-11-15T10:27:46;38.35;;;25.55;;
45893;SDS011;31603;51.148;16.932;2022-11-15T10:30:21;41.42;;;21.65;;
45893;SDS011;31603;51.148;16.932;2022-11-15T10:32:48;41.45;;;24.67;;
45893;SDS011;31603;51.148;16.932;2022-11-15T10:35:16;39.10;;;23.27;;
45893;SDS011;31603;51.148;16.932;2022-11-15T10:37:48;39.47;;;23.73;;
45893;SDS011;31603;51.148;16.932;2022-11-15T10:40:17;40.55;;;24.33;;
45893;SDS011;31603;51.148;16.932;2022-11-15T10:42:46;42.33;;;23.27;;
45893;SDS011;31603;51.148;16.932;2022-11-15T10:48:28;36.10;;;20.70;;
45893;SDS011;31603;51.148;16.932;2022-11-15T10:50:58;32.03;;;20.02;;
45893;SDS011;31603;51.148;16.932;2022-11-15T10:53:30;35.25;;;18.20;;
45893;SDS011;31603;51.148;16.932;2022-11-15T10:56:00;32.95;;;18.75;;
45893;SDS011;31603;51.148;16.932;2022-11-15T10:58:31;31.88;;;16.83;;
45893;SDS011;31603;51.148;16.932;2022-11-15T11:01:14;28.27;;;17.02;;
45893;SDS011;31603;51.148;16.932;2022-11-15T11:06:48;27.80;;;16.98;;
45893;SDS011;31603;51.148;16.932;2022-11-15T11:09:58;31.48;;;19.20;;
45893;SDS011;31603;51.148;16.932;2022-11-15T11:12:28;27.95;;;16.60;;
45893;SDS011;31603;51.148;16.932;2022-11-15T11:14:58;28.25;;;17.88;;
45893;SDS011;31603;51.148;16.932;2022-11-15T11:17:31;30.23;;;16.80;;
45893;SDS011;31603;51.148;16.932;2022-11-15T11:20:09;32.28;;;17.83;;
45893;SDS011;31603;51.148;16.932;2022-11-15T11:22:41;31.40;;;18.73;;
45893;SDS011;31603;51.148;16.932;2022-11-15T11:25:22;30.90;;;18.73;;
45893;SDS011;31603;51.148;16.932;2022-11-15T11:27:58;30.15;;;19.83;;
45893;SDS011;31603;51.148;16.932;2022-11-15T11:30:33;27.65;;;19.15;;
45893;SDS011;31603;51.148;16.932;2022-11-15T11:33:12;27.83;;;17.85;;
45893;SDS011;31603;51.148;16.932;2022-11-15T11:35:47;31.10;;;19.35;;
45893;SDS011;31603;51.148;16.932;2022-11-15T11:38:29;30.08;;;18.42;;
45893;SDS011;31603;51.148;16.932;2022-11-15T11:41:20;27.00;;;18.67;;
45893;SDS011;31603;51.148;16.932;2022-11-15T11:44:06;33.92;;;18.42;;
45893;SDS011;31603;51.148;16.932;2022-11-15T11:46:53;29.63;;;16.92;;
45893;SDS011;31603;51.148;16.932;2022-11-15T11:49:24;27.33;;;18.33;;
45893;SDS011;31603;51.148;16.932;2022-11-15T11:52:00;25.55;;;17.58;;
45893;SDS011;31603;51.148;16.932;2022-11-15T11:54:34;28.58;;;16.58;;
45893;SDS011;31603;51.148;16.932;2022-11-15T11:58:28;25.45;;;15.32;;
45893;SDS011;31603;51.148;16.932;2022-11-15T12:00:41;23.33;;;13.50;;
45893;SDS011;31603;51.148;16.932;2022-11-15T12:03:14;22.17;;;14.02;;
45893;SDS011;31603;51.148;16.932;2022-11-15T12:05:48;19.65;;;14.00;;
45893;SDS011;31603;51.148;16.932;2022-11-15T12:08:25;20.27;;;14.15;;
45893;SDS011;31603;51.148;16.932;2022-11-15T12:11:00;23.48;;;15.23;;
45893;SDS011;31603;51.148;16.932;2022-11-15T12:14:00;20.50;;;14.57;;
45893;SDS011;31603;51.148;16.932;2022-11-15T12:16:31;20.63;;;12.73;;
45893;SDS011;31603;51.148;16.932;2022-11-15T12:19:00;21.73;;;12.63;;
45893;SDS011;31603;51.148;16.932;2022-11-15T12:21:47;16.17;;;11.02;;
45893;SDS011;31603;51.148;16.932;2022-11-15T12:24:37;20.20;;;13.10;;
45893;SDS011;31603;51.148;16.932;2022-11-15T12:27:11;17.83;;;11.70;;
45893;SDS011;31603;51.148;16.932;2022-11-15T12:29:58;17.23;;;11.48;;
45893;SDS011;31603;51.148;16.932;2022-11-15T12:32:37;15.23;;;9.27;;
45893;SDS011;31603;51.148;16.932;2022-11-15T12:35:19;15.77;;;9.48;;
45893;SDS011;31603;51.148;16.932;2022-11-15T12:37:51;12.70;;;8.02;;
45893;SDS011;31603;51.148;16.932;2022-11-15T12:40:26;12.70;;;8.35;;
45893;SDS011;31603;51.148;16.932;2022-11-15T12:45:56;15.38;;;8.93;;
45893;SDS011;31603;51.148;16.932;2022-11-15T12:48:45;16.60;;;8.48;;
45893;SDS011;31603;51.148;16.932;2022-11-15T12:51:14;12.90;;;8.55;;
45893;SDS011;31603;51.148;16.932;2022-11-15T12:53:41;17.08;;;9.27;;
45893;SDS011;31603;51.148;16.932;2022-11-15T12:56:23;13.50;;;9.18;;
45893;SDS011;31603;51.148;16.932;2022-11-15T12:58:52;12.45;;;9.10;;
45893;SDS011;31603;51.148;16.932;2022-11-15T13:04:28;12.98;;;9.52;;
45893;SDS011;31603;51.148;16.932;2022-11-15T13:06:57;15.95;;;10.18;;
45893;SDS011;31603;51.148;16.932;2022-11-15T13:15:40;18.42;;;10.55;;
45893;SDS011;31603;51.148;16.932;2022-11-15T13:18:30;14.73;;;10.63;;
45893;SDS011;31603;51.148;16.932;2022-11-15T13:21:20;17.83;;;10.52;;
45893;SDS011;31603;51.148;16.932;2022-11-15T13:24:13;15.32;;;10.00;;
45893;SDS011;31603;51.148;16.932;2022-11-15T13:26:41;21.85;;;11.18;;
45893;SDS011;31603;51.148;16.932;2022-11-15T13:29:16;15.80;;;10.43;;
45893;SDS011;31603;51.148;16.932;2022-11-15T13:31:45;17.90;;;11.55;;
45893;SDS011;31603;51.148;16.932;2022-11-15T13:34:26;15.05;;;11.25;;
45893;SDS011;31603;51.148;16.932;2022-11-15T13:36:55;16.55;;;10.90;;
45893;SDS011;31603;51.148;16.932;2022-11-15T13:39:26;16.67;;;11.70;;
45893;SDS011;31603;51.148;16.932;2022-11-15T13:41:54;14.60;;;10.65;;
45893;SDS011;31603;51.148;16.932;2022-11-15T13:44:22;18.10;;;11.38;;
45893;SDS011;31603;51.148;16.932;2022-11-15T13:47:03;14.60;;;9.95;;
45893;SDS011;31603;51.148;16.932;2022-11-15T13:49:30;15.43;;;11.43;;
45893;SDS011;31603;51.148;16.932;2022-11-15T13:52:12;19.58;;;12.15;;
45893;SDS011;31603;51.148;16.932;2022-11-15T13:54:42;20.23;;;13.20;;
45893;SDS011;31603;51.148;16.932;2022-11-15T13:57:14;18.67;;;12.23;;
45893;SDS011;31603;51.148;16.932;2022-11-15T13:59:54;22.60;;;13.98;;
45893;SDS011;31603;51.148;16.932;2022-11-15T14:02:30;23.23;;;14.75;;
45893;SDS011;31603;51.148;16.932;2022-11-15T14:05:19;18.90;;;12.73;;
45893;SDS011;31603;51.148;16.932;2022-11-15T14:07:55;19.37;;;12.77;;
45893;SDS011;31603;51.148;16.932;2022-11-15T14:10:53;24.05;;;12.48;;
45893;SDS011;31603;51.148;16.932;2022-11-15T14:13:34;23.08;;;11.80;;
45893;SDS011;31603;51.148;16.932;2022-11-15T14:16:36;19.65;;;12.63;;
45893;SDS011;31603;51.148;16.932;2022-11-15T14:19:04;23.75;;;15.30;;
45893;SDS011;31603;51.148;16.932;2022-11-15T14:21:31;19.85;;;13.15;;
45893;SDS011;31603;51.148;16.932;2022-11-15T14:24:13;23.63;;;13.18;;
45893;SDS011;31603;51.148;16.932;2022-11-15T14:26:40;21.27;;;14.68;;
45893;SDS011;31603;51.148;16.932;2022-11-15T14:29:22;25.00;;;14.48;;
45893;SDS011;31603;51.148;16.932;2022-11-15T14:31:51;26.80;;;14.30;;
45893;SDS011;31603;51.148;16.932;2022-11-15T14:34:18;30.38;;;14.38;;
45893;SDS011;31603;51.148;16.932;2022-11-15T14:36:46;24.38;;;14.15;;
45893;SDS011;31603;51.148;16.932;2022-11-15T14:39:13;29.50;;;14.88;;
45893;SDS011;31603;51.148;16.932;2022-11-15T14:41:39;36.72;;;15.65;;
45893;SDS011;31603;51.148;16.932;2022-11-15T14:44:06;26.63;;;15.27;;
45893;SDS011;31603;51.148;16.932;2022-11-15T14:46:35;29.67;;;16.90;;
45893;SDS011;31603;51.148;16.932;2022-11-15T14:49:03;38.72;;;19.23;;
45893;SDS011;31603;51.148;16.932;2022-11-15T14:51:29;32.50;;;19.33;;
45893;SDS011;31603;51.148;16.932;2022-11-15T14:53:57;36.60;;;19.40;;
45893;SDS011;31603;51.148;16.932;2022-11-15T14:56:24;51.97;;;28.25;;